Time;durP1;ratioP1;P1;durP2;ratioP2;P2;SDS_P1;SDS_P2;PMS_P1;PMS_P2;Temp;Humidity;BMP_temperature;BMP_pressure;BME280_temperature;BME280_humidity;BME280_pressure;Samples;Min_cycle;Max_cycle;Signal;HPM_P1;HPM_P2
2021/05/19 00:01:50;;;;;;;12.70;11.33;;;;;;;16.94;70.29;97723.25;1757400;79;21082;-41
2021/05/19 00:04:17;;;;;;;13.30;12.00;;;;;;;16.93;70.17;97725.85;1790227;78;21613;-40
2021/05/19 00:06:44;;;;;;;13.43;11.90;;;;;;;16.91;70.14;97722.02;1783746;79;21080;-41
2021/05/19 00:09:15;;;;;;;12.10;10.80;;;;;;;16.91;69.92;97723.38;1806632;78;20983;-41
2021/05/19 00:11:48;;;;;;;12.40;11.20;;;;;;;16.93;69.88;97728.59;1806618;78;21205;-41
2021/05/19 00:14:15;;;;;;;12.65;11.35;;;;;;;16.94;69.87;97727.36;1783023;79;20983;-41
2021/05/19 00:16:45;;;;;;;13.08;11.68;;;;;;;16.93;69.81;97727.22;1785554;78;20992;-41
2021/05/19 00:19:12;;;;;;;14.07;11.83;;;;;;;16.91;69.67;97722.02;1747645;82;21633;-41
2021/05/19 00:21:39;;;;;;;14.07;11.75;;;;;;;16.89;69.70;97725.81;1756506;80;21122;-41
2021/05/19 00:24:08;;;;;;;13.48;10.72;;;;;;;16.86;69.74;97726.07;1746600;80;21269;-41
2021/05/19 00:26:34;;;;;;;12.20;11.10;;;;;;;16.84;69.83;97724.39;1799934;79;20984;-41
2021/05/19 00:29:03;;;;;;;12.07;10.82;;;;;;;16.88;69.86;97726.41;1798733;78;21074;-41
2021/05/19 00:31:33;;;;;;;12.95;11.65;;;;;;;16.89;70.00;97731.28;1787923;79;21003;-41
2021/05/19 00:34:01;;;;;;;14.25;12.30;;;;;;;16.86;70.11;97724.70;1804809;78;20999;-41
2021/05/19 00:36:27;;;;;;;14.87;12.33;;;;;;;16.80;70.17;97729.20;1784779;78;21070;-41
2021/05/19 00:38:57;;;;;;;12.40;11.10;;;;;;;16.74;70.45;97726.87;1761869;80;20979;-41
2021/05/19 00:41:22;;;;;;;11.73;10.63;;;;;;;16.73;70.53;97726.70;1796821;78;20979;-41
2021/05/19 00:43:50;;;;;;;12.78;11.35;;;;;;;16.78;70.43;97720.67;1765948;80;23105;-41
2021/05/19 00:46:17;;;;;;;12.98;11.68;;;;;;;16.82;70.31;97722.69;1785026;78;21648;-41
2021/05/19 00:48:44;;;;;;;13.78;12.35;;;;;;;16.82;70.25;97724.06;1799226;78;20903;-41
2021/05/19 00:51:12;;;;;;;14.07;12.55;;;;;;;16.76;70.23;97728.55;1783682;78;21632;-41
2021/05/19 00:53:39;;;;;;;11.88;10.65;;;;;;;16.66;70.40;97726.91;1760072;81;21110;-41
2021/05/19 00:56:05;;;;;;;14.53;11.35;;;;;;;16.57;70.60;97726.02;1755158;81;21055;-41
2021/05/19 00:58:33;;;;;;;13.43;12.13;;;;;;;16.58;70.64;97720.71;1763754;81;21114;-41
2021/05/19 01:01:00;;;;;;;16.10;13.18;;;;;;;16.59;70.39;97725.02;1734707;81;20978;-41
2021/05/19 01:03:29;;;;;;;13.80;12.27;;;;;;;16.56;70.41;97724.48;1762158;81;21047;-41
2021/05/19 01:06:06;;;;;;;16.85;13.48;;;;;;;16.50;70.64;97725.66;1765161;81;21054;-40
2021/05/19 01:11:15;;;;;;;14.90;12.28;;;;;;;16.50;70.74;97731.13;1762037;81;21055;-41
2021/05/19 01:13:45;;;;;;;14.20;12.78;;;;;;;16.57;70.67;97733.62;1726300;81;21057;-41
2021/05/19 01:16:12;;;;;;;15.98;13.10;;;;;;;16.61;70.57;97730.80;1763859;81;21020;-41
2021/05/19 01:18:40;;;;;;;15.35;13.75;;;;;;;16.59;70.49;97735.96;1735066;81;21042;-41
2021/05/19 01:21:09;;;;;;;14.98;13.32;;;;;;;16.56;70.51;97733.45;1695842;84;21030;-41
2021/05/19 01:23:37;;;;;;;13.48;12.07;;;;;;;16.56;70.55;97736.78;1751834;81;22142;-41
2021/05/19 01:26:07;;;;;;;16.37;12.10;;;;;;;16.58;70.51;97731.09;1755018;81;20943;-41
2021/05/19 01:28:33;;;;;;;13.95;12.55;;;;;;;16.64;70.43;97735.41;1742460;81;21296;-41
2021/05/19 01:31:00;;;;;;;15.05;12.88;;;;;;;16.68;70.38;97734.09;1731217;82;20934;-41
2021/05/19 01:33:28;;;;;;;14.73;12.63;;;;;;;16.65;70.48;97727.38;1703358;83;21695;-41
2021/05/19 01:35:54;;;;;;;15.38;13.68;;;;;;;16.62;70.54;97727.63;1754822;79;20971;-41
2021/05/19 01:38:21;;;;;;;13.75;12.37;;;;;;;16.56;70.60;97727.98;1765176;81;20960;-41
2021/05/19 01:40:48;;;;;;;13.32;11.90;;;;;;;16.49;70.84;97727.62;1768737;81;21055;-41
2021/05/19 01:43:15;;;;;;;14.45;12.95;;;;;;;16.53;70.78;97737.08;1728288;81;21294;-40
2021/05/19 01:45:43;;;;;;;15.35;12.43;;;;;;;16.57;70.73;97732.85;1762242;81;21110;-41
2021/05/19 01:48:13;;;;;;;14.83;13.32;;;;;;;16.34;70.60;97699.77;1694577;84;21055;-41
2021/05/19 01:50:41;;;;;;;14.40;13.03;;;;;;;16.61;70.57;97738.41;1736645;81;20924;-41
2021/05/19 01:53:08;;;;;;;15.43;13.62;;;;;;;16.63;70.44;97735.24;1745739;79;20988;-41
2021/05/19 01:55:35;;;;;;;15.15;13.15;;;;;;;16.40;70.31;97698.80;1724402;82;21067;-41
2021/05/19 01:58:02;;;;;;;13.45;12.05;;;;;;;16.71;70.15;97735.17;1735161;82;21022;-41
2021/05/19 02:00:30;;;;;;;13.62;12.25;;;;;;;16.75;70.11;97737.95;1709522;82;21024;-41
2021/05/19 02:03:05;;;;;;;16.42;12.80;;;;;;;16.76;70.09;97736.76;1733025;80;21538;-41
2021/05/19 02:05:35;;;;;;;14.90;13.32;;;;;;;16.77;70.07;97731.45;1744400;81;21122;-40
2021/05/19 02:08:07;;;;;;;13.72;12.20;;;;;;;16.75;70.02;97725.64;1753781;81;21616;-41
2021/05/19 02:10:37;;;;;;;14.00;12.47;;;;;;;16.76;69.99;97726.41;1741069;81;21473;-41
2021/05/19 02:13:07;;;;;;;13.13;11.73;;;;;;;16.80;69.95;97731.16;1789446;79;20959;-40
2021/05/19 02:15:35;;;;;;;13.20;11.80;;;;;;;16.80;69.88;97722.35;1785192;79;21529;-41
2021/05/19 02:18:03;;;;;;;13.90;12.37;;;;;;;16.80;69.88;97722.35;1781460;79;21606;-41
2021/05/19 02:20:31;;;;;;;12.80;11.50;;;;;;;16.80;69.87;97719.61;1785733;79;21592;-41
2021/05/19 02:22:59;;;;;;;13.55;12.25;;;;;;;16.76;69.77;97723.08;1792429;79;21676;-40
2021/05/19 02:25:26;;;;;;;15.43;11.93;;;;;;;16.75;69.84;97724.27;1796050;79;20995;-41
2021/05/19 02:27:53;;;;;;;14.40;11.50;;;;;;;16.73;69.79;97730.80;1776536;79;20929;-41
2021/05/19 02:30:22;;;;;;;13.00;11.75;;;;;;;16.77;69.76;97732.05;1783184;79;21012;-40
2021/05/19 02:32:50;;;;;;;15.05;13.10;;;;;;;16.79;69.65;97735.89;1801782;78;21597;-40
2021/05/19 02:35:17;;;;;;;14.75;12.25;;;;;;;16.79;69.56;97740.00;1803875;79;21075;-41
2021/05/19 02:37:45;;;;;;;13.78;12.47;;;;;;;16.77;69.58;97737.52;1737445;82;21009;-41
2021/05/19 02:40:15;;;;;;;13.85;12.53;;;;;;;16.74;69.46;97749.36;1744953;80;20974;-40
2021/05/19 02:42:43;;;;;;;13.88;12.15;;;;;;;16.76;69.36;97742.83;1711810;83;20992;-40
2021/05/19 02:45:11;;;;;;;13.55;12.28;;;;;;;16.77;69.36;97738.89;1742518;79;21028;-40
2021/05/19 02:47:38;;;;;;;15.10;13.60;;;;;;;16.76;69.38;97735.39;1758373;81;21072;-40
2021/05/19 02:50:06;;;;;;;15.28;13.68;;;;;;;16.75;69.47;97736.59;1753349;79;21065;-41
2021/05/19 02:52:33;;;;;;;15.78;14.18;;;;;;;16.71;69.57;97742.78;1718864;82;21573;-41
2021/05/19 02:55:00;;;;;;;13.95;12.65;;;;;;;16.68;69.63;97742.90;1747570;80;21665;-41
2021/05/19 02:57:27;;;;;;;14.07;12.65;;;;;;;16.65;69.78;97744.56;1747584;80;21012;-41
2021/05/19 02:59:53;;;;;;;14.75;13.25;;;;;;;16.66;69.81;97744.70;1746628;80;21307;-41
2021/05/19 03:02:20;;;;;;;15.23;13.62;;;;;;;16.65;69.82;97740.45;1749739;79;21144;-41
2021/05/19 03:04:47;;;;;;;15.28;13.83;;;;;;;16.63;69.91;97744.22;1745801;82;20996;-41
2021/05/19 03:07:14;;;;;;;16.62;14.03;;;;;;;16.60;69.99;97741.00;1753243;79;21439;-41
2021/05/19 03:09:40;;;;;;;13.80;12.40;;;;;;;16.59;70.05;97746.91;1749688;79;21575;-41
2021/05/19 03:12:09;;;;;;;14.03;12.68;;;;;;;16.51;70.26;97742.20;1748912;80;21002;-40
2021/05/19 03:14:36;;;;;;;15.03;13.50;;;;;;;16.53;70.48;97749.38;1762173;79;21545;-41
2021/05/19 03:17:03;;;;;;;14.75;13.18;;;;;;;16.57;70.48;97755.51;1744033;80;21538;-41
2021/05/19 03:19:30;;;;;;;14.05;12.65;;;;;;;16.58;70.49;97754.34;1739943;80;21596;-41
2021/05/19 03:21:57;;;;;;;17.65;13.70;;;;;;;16.60;70.52;97760.16;1769114;80;21514;-41
2021/05/19 03:24:24;;;;;;;14.25;12.85;;;;;;;16.60;70.48;97764.26;1764640;79;21056;-41
2021/05/19 03:26:51;;;;;;;15.10;13.50;;;;;;;16.61;70.53;97759.52;1761760;79;21118;-41
2021/05/19 03:29:18;;;;;;;17.20;13.18;;;;;;;16.62;70.65;97765.94;1746926;80;21028;-41
2021/05/19 03:31:44;;;;;;;14.43;12.93;;;;;;;16.60;70.86;97767.59;1745715;82;21005;-41
2021/05/19 03:34:11;;;;;;;14.45;12.90;;;;;;;16.60;70.95;97765.63;1759943;79;21557;-41
2021/05/19 03:36:38;;;;;;;13.85;11.90;;;;;;;16.61;70.92;97767.13;1769025;79;21443;-41
2021/05/19 03:39:07;;;;;;;13.43;12.03;;;;;;;16.61;70.83;97773.97;1755461;80;21056;-41
2021/05/19 03:41:36;;;;;;;14.15;12.28;;;;;;;16.66;70.72;97772.06;1744596;80;20967;-40
2021/05/19 03:44:06;;;;;;;13.48;12.07;;;;;;;16.71;70.71;97772.11;1766322;79;20991;-41
2021/05/19 03:46:32;;;;;;;15.75;13.90;;;;;;;16.72;70.82;97774.42;1760258;79;21683;-41
2021/05/19 03:49:00;;;;;;;17.45;13.28;;;;;;;16.75;70.67;97777.64;1738870;80;21440;-41
2021/05/19 03:51:29;;;;;;;16.10;13.25;;;;;;;16.76;70.63;97772.94;1764210;80;21015;-41
2021/05/19 03:53:56;;;;;;;13.68;12.40;;;;;;;16.76;70.53;97780.55;1792241;79;21556;-40
2021/05/19 03:56:24;;;;;;;14.63;13.13;;;;;;;16.84;70.31;97784.61;1703340;83;21095;-40
2021/05/19 03:58:51;;;;;;;15.53;13.85;;;;;;;16.89;70.24;97787.40;1748121;81;21074;-41
2021/05/19 04:01:17;;;;;;;15.58;13.90;;;;;;;16.90;70.26;97785.57;1761096;79;21816;-41
2021/05/19 04:03:44;;;;;;;17.15;14.60;;;;;;;16.92;70.34;97783.17;1765285;79;21102;-41
2021/05/19 04:06:11;;;;;;;14.20;12.70;;;;;;;16.90;70.39;97784.20;1788874;79;20936;-41
2021/05/19 04:08:40;;;;;;;15.00;12.65;;;;;;;16.87;70.36;97778.84;1774489;79;21045;-40
2021/05/19 04:11:09;;;;;;;13.93;12.50;;;;;;;16.85;70.38;97776.54;1769725;79;21020;-41
2021/05/19 04:13:36;;;;;;;14.53;12.78;;;;;;;16.87;70.50;97776.11;1765041;81;21044;-41
2021/05/19 04:16:03;;;;;;;15.90;13.08;;;;;;;16.88;70.35;97774.91;1767646;79;21019;-41
2021/05/19 04:18:30;;;;;;;17.07;13.83;;;;;;;16.87;70.25;97774.14;1793414;79;21082;-41
2021/05/19 04:20:58;;;;;;;13.55;12.25;;;;;;;16.88;70.31;97774.31;1772250;79;20964;-41
2021/05/19 04:23:26;;;;;;;14.58;12.65;;;;;;;16.84;70.35;97781.88;1795711;79;21015;-41
2021/05/19 04:25:53;;;;;;;15.83;13.35;;;;;;;16.83;70.45;97781.70;1777316;79;21085;-40
2021/05/19 04:28:20;;;;;;;16.65;14.13;;;;;;;16.75;70.75;97781.74;1781723;79;21636;-40
2021/05/19 04:30:48;;;;;;;16.45;13.88;;;;;;;16.69;70.90;97780.78;1787401;79;20968;-41
2021/05/19 04:33:16;;;;;;;14.65;13.20;;;;;;;16.66;71.10;97780.87;1779806;79;20996;-41
2021/05/19 04:35:42;;;;;;;14.68;13.28;;;;;;;16.64;71.33;97789.53;1783200;79;21083;-40
2021/05/19 04:38:09;;;;;;;12.68;11.38;;;;;;;16.58;71.46;97792.64;1778140;79;21658;-40
2021/05/19 04:40:36;;;;;;;12.78;11.43;;;;;;;16.23;71.62;97751.27;1780458;79;21052;-40
2021/05/19 04:43:09;;;;;;;10.63;9.45;;;;;;;16.38;71.94;97794.18;1781210;79;20960;-40
2021/05/19 04:45:32;;;;;;;10.35;9.35;;;;;;;16.34;72.30;97794.12;1712912;82;21047;-41
2021/05/19 04:47:59;;;;;;;10.80;9.80;;;;;;;16.36;72.50;97797.20;1781632;79;21035;-40
2021/05/19 04:50:27;;;;;;;13.35;10.20;;;;;;;16.36;72.76;97799.94;1782962;79;21436;-41
2021/05/19 04:52:54;;;;;;;8.90;7.97;;;;;;;16.36;72.79;97792.47;1777832;79;20931;-40
2021/05/19 04:55:21;;;;;;;9.13;8.23;;;;;;;16.37;72.80;97791.88;1775876;80;21014;-40
2021/05/19 04:57:49;;;;;;;10.00;9.05;;;;;;;16.41;72.78;97790.56;1764260;80;20982;-40
2021/05/19 05:00:17;;;;;;;10.58;9.38;;;;;;;16.44;72.76;97793.81;1782783;80;21073;-40
2021/05/19 05:02:44;;;;;;;9.83;8.35;;;;;;;16.47;72.99;97794.89;1764391;80;21055;-40
2021/05/19 05:05:12;;;;;;;11.38;8.95;;;;;;;16.51;72.76;97798.28;1780380;80;21672;-40
2021/05/19 05:07:38;;;;;;;11.45;9.28;;;;;;;16.57;72.52;97800.66;1779405;80;21682;-40
2021/05/19 05:10:07;;;;;;;10.78;9.68;;;;;;;16.59;72.40;97803.76;1776389;80;21051;-40
2021/05/19 05:12:35;;;;;;;10.13;9.13;;;;;;;16.54;72.44;97798.80;1779535;80;21624;-40
2021/05/19 05:15:03;;;;;;;11.85;8.90;;;;;;;16.54;72.60;97796.06;1777987;80;21189;-40
2021/05/19 05:17:30;;;;;;;10.58;9.48;;;;;;;16.60;72.30;97791.62;1785907;80;21009;-40
2021/05/19 05:19:57;;;;;;;9.08;8.08;;;;;;;16.66;72.05;97793.95;1782549;80;21544;-40
2021/05/19 05:22:24;;;;;;;9.20;8.30;;;;;;;16.67;71.92;97798.22;1762379;80;21041;-40
2021/05/19 05:24:52;;;;;;;8.78;7.87;;;;;;;16.65;71.82;97792.44;1761519;78;21034;-40
2021/05/19 05:27:19;;;;;;;9.80;8.03;;;;;;;16.65;71.97;97782.86;1765329;78;21693;-41
2021/05/19 05:29:46;;;;;;;9.38;8.38;;;;;;;16.69;71.75;97784.88;1725714;80;20955;-40
2021/05/19 05:32:13;;;;;;;8.25;7.45;;;;;;;16.73;71.87;97791.01;1774049;78;20967;-41
2021/05/19 05:34:39;;;;;;;8.20;7.40;;;;;;;16.87;71.91;97792.53;1764596;80;21075;-41
2021/05/19 05:37:06;;;;;;;10.00;7.47;;;;;;;16.97;71.22;97794.17;1775970;80;21063;-40
2021/05/19 05:39:33;;;;;;;7.75;6.95;;;;;;;16.98;71.28;97801.19;1763944;78;21700;-40
2021/05/19 05:41:59;;;;;;;8.78;7.60;;;;;;;16.94;71.12;97798.53;1773309;78;21041;-40
2021/05/19 05:44:26;;;;;;;8.50;6.62;;;;;;;16.90;70.92;97799.86;1778854;78;20982;-40
2021/05/19 05:46:53;;;;;;;6.65;5.92;;;;;;;16.86;71.10;97799.20;1769052;78;21001;-40
2021/05/19 05:49:19;;;;;;;6.87;6.28;;;;;;;16.91;71.35;97804.13;1751319;78;20978;-40
2021/05/19 05:51:46;;;;;;;6.40;5.70;;;;;;;16.95;71.40;97794.59;1772874;78;21070;-40
2021/05/19 05:54:13;;;;;;;6.00;5.40;;;;;;;17.00;71.53;97798.75;1768824;79;21274;-40
2021/05/19 05:56:41;;;;;;;5.47;4.97;;;;;;;17.04;71.11;97802.77;1773071;79;20995;-41
2021/05/19 05:59:09;;;;;;;5.50;5.00;;;;;;;17.01;70.35;97806.37;1779388;79;20995;-40
2021/05/19 06:01:35;;;;;;;4.62;4.22;;;;;;;16.91;70.73;97807.64;1780447;79;21553;-41
2021/05/19 06:04:03;;;;;;;4.70;4.30;;;;;;;16.96;70.89;97815.90;1774933;79;21813;-40
2021/05/19 06:06:30;;;;;;;4.40;4.00;;;;;;;16.94;70.86;97815.59;1773527;79;20956;-40
2021/05/19 06:08:57;;;;;;;5.20;4.40;;;;;;;16.90;70.90;97819.78;1772395;79;21010;-40
2021/05/19 06:11:24;;;;;;;4.20;3.80;;;;;;;16.88;71.10;97823.58;1772030;81;21121;-40
2021/05/19 06:13:50;;;;;;;6.67;3.70;;;;;;;16.90;71.44;97822.52;1780915;79;21561;-40
2021/05/19 06:16:17;;;;;;;4.25;3.80;;;;;;;16.95;71.46;97826.68;1794303;79;21684;-40
2021/05/19 06:18:44;;;;;;;4.03;3.60;;;;;;;16.99;71.08;97829.33;1781825;79;21547;-40
2021/05/19 06:21:10;;;;;;;3.65;3.35;;;;;;;17.00;71.20;97830.23;1833672;78;20995;-41
2021/05/19 06:23:37;;;;;;;4.20;3.80;;;;;;;16.99;71.25;97830.70;1804708;77;21011;-40
2021/05/19 06:26:05;;;;;;;4.75;3.60;;;;;;;16.97;71.00;97837.20;1790393;79;20995;-40
2021/05/19 06:28:32;;;;;;;4.33;3.47;;;;;;;16.98;71.21;97840.11;1798146;79;21771;-41
2021/05/19 06:30:59;;;;;;;3.85;3.55;;;;;;;17.02;71.07;97838.80;1791456;79;21549;-40
2021/05/19 06:33:26;;;;;;;4.10;3.70;;;;;;;17.05;71.01;97843.98;1791804;79;21015;-40
2021/05/19 06:35:53;;;;;;;4.25;3.58;;;;;;;16.79;71.19;97811.16;1794571;79;21039;-40
2021/05/19 06:38:20;;;;;;;4.17;3.75;;;;;;;17.07;71.25;97838.84;1795054;79;21036;-41
2021/05/19 06:40:47;;;;;;;3.37;2.98;;;;;;;17.11;70.85;97846.34;1799972;79;21698;-41
2021/05/19 06:43:14;;;;;;;4.22;3.83;;;;;;;17.12;70.32;97844.54;1792946;79;20972;-41
2021/05/19 06:45:41;;;;;;;3.55;3.25;;;;;;;17.12;70.12;97843.17;1800702;79;20947;-41
2021/05/19 06:48:08;;;;;;;4.03;3.55;;;;;;;17.08;70.05;97839.02;1794886;79;20965;-40
2021/05/19 06:50:34;;;;;;;4.55;3.75;;;;;;;17.04;70.34;97843.84;1770110;79;21047;-40
2021/05/19 06:53:01;;;;;;;3.22;2.95;;;;;;;17.05;70.97;97841.24;1789309;79;21091;-40
2021/05/19 06:55:28;;;;;;;3.58;3.02;;;;;;;17.13;70.78;97839.83;1771727;79;20979;-40
2021/05/19 06:57:55;;;;;;;3.35;3.05;;;;;;;17.20;69.91;97847.80;1780529;79;21020;-40
2021/05/19 07:00:23;;;;;;;4.03;3.62;;;;;;;17.28;69.63;97849.13;1719504;82;21000;-40
2021/05/19 07:02:50;;;;;;;3.55;3.25;;;;;;;17.33;69.68;97853.42;1748467;81;21048;-40
2021/05/19 07:05:17;;;;;;;4.87;3.50;;;;;;;17.37;68.80;97855.47;1759492;81;20994;-40
2021/05/19 07:07:46;;;;;;;2.90;2.70;;;;;;;17.38;68.52;97858.34;1759355;81;21011;-40
2021/05/19 07:10:14;;;;;;;2.98;2.67;;;;;;;17.38;68.61;97861.09;1738962;79;21565;-40
2021/05/19 07:12:42;;;;;;;;;;;;;;;17.46;68.38;97864.98;1745557;81;20975;-40
2021/05/19 07:15:14;;;;;;;3.02;2.83;;;;;;;17.55;68.04;97864.47;1767313;81;20214;-40
2021/05/19 07:17:41;;;;;;;4.85;3.00;;;;;;;17.50;68.00;97863.66;1732020;82;21053;-40
2021/05/19 07:20:10;;;;;;;3.75;3.10;;;;;;;17.59;67.52;97867.88;1744853;81;21117;-40
2021/05/19 07:22:39;;;;;;;3.20;2.90;;;;;;;17.65;67.67;97861.24;1753050;81;20959;-40
2021/05/19 07:25:07;;;;;;;2.55;2.30;;;;;;;17.70;67.67;97857.34;1739428;81;20994;-40
2021/05/19 07:27:34;;;;;;;4.15;3.02;;;;;;;17.79;68.03;97861.53;1724930;83;21094;-40
2021/05/19 07:30:03;;;;;;;4.00;2.95;;;;;;;17.94;67.65;97863.78;1770822;80;21073;-40
2021/05/19 07:32:30;;;;;;;4.33;3.30;;;;;;;18.01;67.05;97855.32;1770343;80;21581;-40
2021/05/19 07:34:57;;;;;;;4.15;3.80;;;;;;;18.04;67.05;97862.64;1770825;80;21061;-40
2021/05/19 07:37:25;;;;;;;5.05;3.25;;;;;;;18.03;66.80;97857.77;1771251;81;21004;-40
2021/05/19 07:39:52;;;;;;;3.70;3.40;;;;;;;18.03;66.87;97861.88;1771891;80;21020;-40
2021/05/19 07:42:20;;;;;;;2.45;2.25;;;;;;;18.04;66.72;97868.13;1769407;79;21757;-40
2021/05/19 07:44:47;;;;;;;3.40;2.47;;;;;;;18.09;66.18;97870.30;1769430;80;20955;-40
2021/05/19 07:47:14;;;;;;;3.22;2.92;;;;;;;18.12;65.77;97872.91;1772377;78;20972;-40
2021/05/19 07:49:41;;;;;;;3.10;2.80;;;;;;;18.09;65.78;97877.16;1770222;80;21604;-40
2021/05/19 07:52:08;;;;;;;3.37;2.95;;;;;;;18.05;65.96;97875.92;1772062;80;21622;-40
2021/05/19 07:54:36;;;;;;;3.83;2.98;;;;;;;18.05;66.28;97873.78;1771775;81;21645;-40
2021/05/19 07:57:43;;;;;;;3.50;3.15;;;;;;;18.08;66.68;97880.50;1772329;80;20972;-40
2021/05/19 07:59:40;;;;;;;4.30;2.50;;;;;;;18.16;66.61;97883.15;1748919;80;21010;-40
2021/05/19 08:02:12;;;;;;;3.40;3.10;;;;;;;18.25;66.21;97883.82;1771225;80;21007;-40
2021/05/19 08:04:39;;;;;;;3.12;2.70;;;;;;;18.36;65.55;97888.93;1769754;80;21440;-41
2021/05/19 08:08:40;;;;;;;3.58;3.02;;;;;;;18.47;64.85;97890.09;1810821;78;22170;-41
2021/05/19 08:11:09;;;;;;;2.80;2.60;;;;;;;18.37;64.62;97889.87;1776061;79;20956;-41
2021/05/19 08:13:40;;;;;;;3.72;3.10;;;;;;;18.37;65.16;97897.33;1776019;79;21096;-41
2021/05/19 08:16:07;;;;;;;3.62;3.10;;;;;;;18.44;65.06;97893.73;1776030;79;21584;-41
2021/05/19 08:18:35;;;;;;;3.45;3.05;;;;;;;18.56;65.90;97892.92;1784345;79;20963;-41
2021/05/19 08:21:02;;;;;;;4.85;2.83;;;;;;;18.72;64.52;97898.05;1792091;79;20959;-41
2021/05/19 08:23:29;;;;;;;4.28;3.15;;;;;;;18.88;64.30;97901.95;1788717;79;21879;-41
2021/05/19 08:25:56;;;;;;;5.95;2.60;;;;;;;18.97;63.63;97901.40;1787082;79;21086;-41
2021/05/19 08:28:23;;;;;;;2.92;2.60;;;;;;;19.01;63.36;97904.77;1778105;79;21564;-41
2021/05/19 08:30:50;;;;;;;4.95;2.90;;;;;;;19.01;62.86;97904.00;1794762;79;21635;-41
2021/05/19 08:33:17;;;;;;;4.30;3.05;;;;;;;19.01;62.39;97900.65;1776183;79;21054;-41
2021/05/19 08:35:44;;;;;;;3.90;2.83;;;;;;;19.03;62.48;97900.17;1780164;79;21079;-41
2021/05/19 08:38:11;;;;;;;3.50;3.20;;;;;;;19.04;63.17;97899.73;1780318;79;21635;-41
2021/05/19 08:40:38;;;;;;;2.87;2.60;;;;;;;19.09;61.75;97907.39;1775901;79;21031;-41
2021/05/19 08:43:05;;;;;;;3.83;2.80;;;;;;;19.10;61.62;97903.43;1793457;79;21031;-41
2021/05/19 08:45:32;;;;;;;4.92;3.20;;;;;;;19.14;61.72;97905.27;1775685;80;20939;-41
2021/05/19 08:48:04;;;;;;;5.15;3.02;;;;;;;19.15;61.77;97905.43;1776763;79;21038;-41
2021/05/19 08:50:32;;;;;;;4.20;2.80;;;;;;;19.13;61.85;97908.62;1778180;79;21619;-41
2021/05/19 08:52:59;;;;;;;4.20;2.87;;;;;;;19.14;61.65;97908.78;1775643;80;21529;-41
2021/05/19 08:55:27;;;;;;;2.83;2.50;;;;;;;19.13;61.28;97905.10;1775613;79;20967;-41
2021/05/19 08:57:55;;;;;;;3.50;2.97;;;;;;;19.10;61.40;97909.53;1753663;81;21421;-41
2021/05/19 09:00:23;;;;;;;3.10;2.62;;;;;;;19.03;61.74;97908.42;1725119;82;20975;-41
2021/05/19 09:03:14;;;;;;;2.90;2.50;;;;;;;19.02;61.98;97909.66;1713733;82;21102;-41
2021/05/19 09:05:44;;;;;;;5.00;2.40;;;;;;;19.04;60.92;97912.70;1739218;81;21540;-41
2021/05/19 09:08:17;;;;;;;3.47;2.12;;;;;;;18.99;61.72;97919.55;1715235;82;20990;-41
2021/05/19 09:11:00;;;;;;;2.60;2.37;;;;;;;19.04;61.22;97905.23;1727259;82;21031;-41
2021/05/19 09:13:36;;;;;;;2.35;2.08;;;;;;;19.12;60.49;97912.61;1714568;82;20987;-41
2021/05/19 09:16:04;;;;;;;4.15;2.50;;;;;;;19.11;60.50;97912.44;1718150;82;21637;-41
2021/05/19 09:18:54;;;;;;;2.80;2.58;;;;;;;19.13;60.71;97909.98;1728651;82;21747;-41
2021/05/19 09:21:39;;;;;;;3.33;2.42;;;;;;;19.15;61.06;97910.31;1738299;82;21040;-41
2021/05/19 09:24:12;;;;;;;2.40;2.10;;;;;;;19.16;61.61;97913.83;1718626;82;21620;-41
2021/05/19 09:26:58;;;;;;;2.83;1.92;;;;;;;19.20;61.17;97904.23;1726648;82;20991;-41
2021/05/19 09:29:29;;;;;;;3.83;2.05;;;;;;;19.26;61.37;97913.42;1722854;82;21589;-41
2021/05/19 09:32:04;;;;;;;2.80;2.30;;;;;;;19.03;61.20;97873.48;1721446;82;20991;-41
2021/05/19 09:34:35;;;;;;;5.65;2.47;;;;;;;19.36;61.75;97915.59;1711650;82;21002;-41
2021/05/19 09:37:25;;;;;;;4.47;2.87;;;;;;;19.43;61.35;97917.44;1722411;82;21035;-41
2021/05/19 09:39:58;;;;;;;3.83;3.30;;;;;;;19.41;61.55;97919.86;1727756;82;20951;-41
2021/05/19 09:42:29;;;;;;;4.33;2.55;;;;;;;19.35;61.30;97913.45;1718633;82;21067;-42
2021/05/19 09:44:57;;;;;;;2.92;2.50;;;;;;;19.29;61.73;97913.88;1713751;82;21097;-41
2021/05/19 09:47:45;;;;;;;4.78;2.25;;;;;;;19.23;61.95;97917.05;1702455;82;20979;-41
2021/05/19 09:50:15;;;;;;;3.80;2.47;;;;;;;19.21;62.07;97916.76;1745681;82;22335;-41
2021/05/19 09:53:02;;;;;;;;;;;;;;;19.21;62.28;97917.37;1723301;82;21026;-41
2021/05/19 09:55:28;;;;;;;3.15;2.70;;;;;;;19.19;62.40;97923.30;1717377;82;21010;-41
2021/05/19 09:57:55;;;;;;;4.80;3.33;;;;;;;19.03;62.26;97933.14;1726396;82;21066;-41
2021/05/19 10:00:24;;;;;;;6.85;2.90;;;;;;;18.97;62.61;97936.33;1724749;82;21019;-41
2021/05/19 10:02:52;;;;;;;3.20;2.33;;;;;;;18.92;62.80;97935.54;1716675;82;21038;-41
2021/05/19 10:05:23;;;;;;;8.58;3.50;;;;;;;18.83;63.41;97944.47;1718614;82;21063;-41
2021/05/19 10:07:47;;;;;;;3.37;3.05;;;;;;;18.68;64.18;97950.34;1732350;81;21126;-41
2021/05/19 10:10:16;;;;;;;3.30;2.98;;;;;;;18.55;64.40;97957.25;1746717;81;20990;-41
2021/05/19 10:12:44;;;;;;;3.40;2.92;;;;;;;18.42;64.26;97957.89;1743716;81;21054;-42
2021/05/19 10:15:30;;;;;;;3.25;2.95;;;;;;;18.32;65.22;97954.14;1739714;81;21037;-41
2021/05/19 10:18:10;;;;;;;3.10;2.80;;;;;;;18.19;65.46;97958.31;1740130;81;21914;-41
2021/05/19 10:20:41;;;;;;;4.22;2.72;;;;;;;17.99;66.06;97949.59;1739505;81;21055;-41
2021/05/19 10:23:12;;;;;;;3.27;2.42;;;;;;;17.89;66.95;97954.82;1733388;81;21042;-42
2021/05/19 10:25:42;;;;;;;2.90;2.60;;;;;;;17.89;67.48;97956.19;1734192;81;20986;-42
2021/05/19 10:28:13;;;;;;;4.42;2.10;;;;;;;17.90;67.69;97960.47;1760202;81;21034;-41
2021/05/19 10:30:57;;;;;;;2.20;2.00;;;;;;;17.80;67.10;97956.27;1748863;81;21698;-42
2021/05/19 10:33:41;;;;;;;3.02;1.82;;;;;;;17.70;67.33;97960.13;1733626;81;21666;-42
2021/05/19 10:36:33;;;;;;;6.58;2.30;;;;;;;17.53;67.58;97967.48;1736614;81;21094;-41
2021/05/19 10:39:18;;;;;;;4.78;2.22;;;;;;;17.37;68.58;97972.50;1745208;81;21109;-41
2021/05/19 10:41:50;;;;;;;3.75;2.80;;;;;;;17.28;69.63;97979.23;1733864;81;21057;-41
2021/05/19 10:44:20;;;;;;;4.58;2.65;;;;;;;17.15;70.37;97975.70;1742886;81;21615;-41
2021/05/19 10:47:05;;;;;;;5.85;2.70;;;;;;;17.02;71.00;97977.06;1733780;81;21608;-41
2021/05/19 10:50:08;;;;;;;8.13;2.10;;;;;;;16.90;71.02;97975.05;1735863;81;21038;-41
2021/05/19 10:52:44;;;;;;;2.70;2.30;;;;;;;16.84;71.35;97988.53;1733718;81;20967;-41
2021/05/19 10:58:03;;;;;;;2.20;2.00;;;;;;;16.71;72.44;98000.02;1733726;81;20994;-41
2021/05/19 11:00:31;;;;;;;2.00;1.90;;;;;;;16.68;72.40;97997.39;1720137;82;21066;-41
2021/05/19 11:03:02;;;;;;;;;;;;;;;16.67;71.78;97997.98;1755494;81;21006;-41
2021/05/19 11:05:32;;;;;;;2.17;1.92;;;;;;;16.65;71.57;97999.62;1753263;81;20217;-41
2021/05/19 11:08:13;;;;;;;5.42;2.27;;;;;;;16.49;71.56;98001.77;1728990;81;21059;-41
2021/05/19 11:10:46;;;;;;;1.87;1.70;;;;;;;16.47;71.76;97998.69;1723666;82;20999;-41
2021/05/19 11:13:12;;;;;;;2.58;2.02;;;;;;;16.51;72.20;98003.46;1735609;82;21086;-41
2021/05/19 11:15:56;;;;;;;2.55;2.35;;;;;;;16.54;72.40;98009.45;1739819;82;21683;-41
2021/05/19 11:20:57;;;;;;;4.15;3.27;;;;;;;16.53;73.38;98018.27;1735825;82;20616;-41
2021/05/19 11:23:24;;;;;;;4.78;3.10;;;;;;;16.44;74.02;98019.48;1720580;82;21107;-41
2021/05/19 11:25:52;;;;;;;4.72;3.10;;;;;;;16.49;74.50;98027.17;1719328;82;21592;-42
2021/05/19 11:28:26;;;;;;;3.25;2.95;;;;;;;16.50;74.64;98032.05;1710164;82;21074;-41
2021/05/19 11:31:15;;;;;;;3.00;2.70;;;;;;;16.46;74.91;98040.91;1721206;82;21015;-41
2021/05/19 11:33:57;;;;;;;3.92;2.42;;;;;;;16.40;75.00;98042.66;1719811;82;21044;-41
2021/05/19 11:36:36;;;;;;;2.10;1.90;;;;;;;16.34;75.28;98047.11;1722338;82;21062;-41
2021/05/19 11:39:24;;;;;;;1.85;1.40;;;;;;;16.34;75.21;98052.58;1716359;82;21281;-41
2021/05/19 11:41:52;;;;;;;4.67;1.12;;;;;;;16.31;74.48;98054.22;1720658;82;21055;-41
2021/05/19 11:44:37;;;;;;;1.65;0.70;;;;;;;16.24;74.31;98057.70;1745422;82;21588;-41
2021/05/19 11:47:05;;;;;;;1.32;0.80;;;;;;;16.24;74.10;98055.74;1720338;81;21046;-41